Time;durP1;ratioP1;P1;durP2;ratioP2;P2;SDS_P1;SDS_P2;PMS_P1;PMS_P2;Temp;Humidity;BMP_temperature;BMP_pressure;BME280_temperature;BME280_humidity;BME280_pressure;Samples;Min_cycle;Max_cycle;Signal;HPM_P1;HPM_P2
2021/11/05 00:01:53;;;;;;;19.57;16.37;;;;;;;15.59;64.08;99836.77;1774871;79;21480;-68
2021/11/05 00:04:19;;;;;;;18.73;16.85;;;;;;;15.59;64.21;99826.06;1762355;80;21098;-68
2021/11/05 00:06:47;;;;;;;19.15;17.15;;;;;;;15.60;64.26;99823.70;1762208;80;21042;-70
2021/11/05 00:09:15;;;;;;;19.02;16.93;;;;;;;15.60;64.29;99819.17;1773961;79;21096;-69
2021/11/05 00:11:42;;;;;;;19.00;17.00;;;;;;;15.60;64.34;99817.83;1784500;80;21471;-69
2021/11/05 00:14:09;;;;;;;19.90;17.90;;;;;;;15.60;64.46;99815.16;1788710;80;21057;-68
2021/11/05 00:16:35;;;;;;;19.45;17.37;;;;;;;15.60;64.55;99813.81;1787243;80;21040;-68
2021/11/05 00:19:01;;;;;;;20.32;18.20;;;;;;;15.60;64.64;99816.49;1767104;80;21059;-67
2021/11/05 00:21:28;;;;;;;18.50;16.70;;;;;;;15.60;64.71;99800.95;1773041;80;21143;-67
2021/11/05 00:23:55;;;;;;;20.00;17.90;;;;;;;15.60;64.71;99809.80;1766733;80;21033;-68
2021/11/05 00:26:21;;;;;;;19.37;17.48;;;;;;;15.60;64.83;99799.61;1765340;81;21044;-67
2021/11/05 00:28:47;;;;;;;19.50;17.57;;;;;;;15.60;64.87;99804.97;1781239;79;21072;-68
2021/11/05 00:31:14;;;;;;;18.05;16.23;;;;;;;15.58;64.95;99801.14;1770572;80;21512;-69
2021/11/05 00:33:40;;;;;;;19.57;17.67;;;;;;;15.59;65.00;99793.92;1769066;80;21556;-68
2021/11/05 00:36:13;;;;;;;20.60;18.50;;;;;;;15.60;65.03;99796.41;1765188;81;21006;-67
2021/11/05 00:38:35;;;;;;;19.48;17.37;;;;;;;15.59;65.12;99801.47;1764069;81;21611;-68
2021/11/05 00:41:01;;;;;;;19.35;17.45;;;;;;;15.60;65.15;99802.29;1736304;81;21088;-69
2021/11/05 00:43:27;;;;;;;20.12;18.02;;;;;;;15.61;65.18;99816.00;1750688;81;21073;-68
2021/11/05 00:45:54;;;;;;;19.82;17.67;;;;;;;15.60;65.21;99827.20;1748794;79;21135;-68
2021/11/05 00:48:20;;;;;;;20.40;18.27;;;;;;;15.60;65.28;99831.22;1747830;81;20997;-68
2021/11/05 00:50:47;;;;;;;20.55;18.48;;;;;;;15.60;65.26;99823.70;1764588;80;21013;-68
2021/11/05 00:53:13;;;;;;;19.37;17.30;;;;;;;15.61;65.32;99814.14;1734732;81;21073;-68
2021/11/05 00:55:40;;;;;;;19.00;17.05;;;;;;;15.62;65.32;99808.27;1754337;81;21029;-68
2021/11/05 00:58:07;;;;;;;18.92;16.93;;;;;;;15.62;65.37;99805.59;1765381;80;21201;-68
2021/11/05 01:00:35;;;;;;;21.20;18.95;;;;;;;15.63;65.39;99811.27;1765287;81;21103;-69
2021/11/05 01:03:01;;;;;;;19.45;17.55;;;;;;;15.63;65.47;99815.29;1752233;79;21020;-67
2021/11/05 01:05:28;;;;;;;17.60;15.78;;;;;;;15.63;65.51;99808.59;1737099;81;21056;-68
2021/11/05 01:07:54;;;;;;;19.35;16.97;;;;;;;15.64;65.53;99810.23;1765457;81;21529;-68
2021/11/05 01:10:21;;;;;;;20.08;18.02;;;;;;;15.64;65.58;99808.38;1765409;81;22015;-69
2021/11/05 01:12:47;;;;;;;18.27;16.42;;;;;;;15.65;65.66;99802.53;1764850;80;21532;-69
2021/11/05 01:15:14;;;;;;;18.35;16.32;;;;;;;15.66;65.77;99809.52;1765294;81;21358;-68
2021/11/05 01:17:40;;;;;;;16.65;14.70;;;;;;;15.68;65.80;99808.31;1765901;81;21008;-68
2021/11/05 01:20:09;;;;;;;18.05;16.25;;;;;;;15.80;65.50;99795.20;1758197;79;21042;-69
2021/11/05 01:22:36;;;;;;;16.95;15.25;;;;;;;15.81;65.43;99796.83;1756007;80;21217;-68
2021/11/05 01:25:03;;;;;;;17.45;15.65;;;;;;;15.80;65.44;99787.16;1757568;80;21014;-68
2021/11/05 01:27:30;;;;;;;18.15;16.25;;;;;;;15.81;65.50;99792.81;1786542;80;21600;-68
2021/11/05 01:29:59;;;;;;;17.40;15.68;;;;;;;15.80;65.57;99781.81;1786522;80;20995;-68
2021/11/05 01:32:27;;;;;;;17.20;15.45;;;;;;;15.81;65.48;99785.30;1776675;80;21031;-68
2021/11/05 01:34:53;;;;;;;17.57;15.70;;;;;;;15.80;65.58;99787.16;1755460;80;21075;-68
2021/11/05 01:37:20;;;;;;;17.12;15.18;;;;;;;15.81;65.58;99784.78;1777647;80;21006;-69
2021/11/05 01:39:46;;;;;;;17.42;15.72;;;;;;;15.80;65.62;99785.83;1769693;80;21018;-68
2021/11/05 01:42:13;;;;;;;17.90;16.10;;;;;;;15.81;65.61;99786.13;1755319;80;21126;-67
2021/11/05 01:44:39;;;;;;;16.73;15.13;;;;;;;15.81;65.64;99783.97;1755560;81;21086;-68
2021/11/05 01:47:06;;;;;;;17.48;15.68;;;;;;;15.80;65.69;99784.48;1755414;80;22018;-68
2021/11/05 01:49:32;;;;;;;18.50;15.55;;;;;;;15.81;65.71;99790.14;1755232;80;21058;-68
2021/11/05 01:51:59;;;;;;;17.57;15.83;;;;;;;15.81;65.77;99791.48;1755299;81;21067;-68
2021/11/05 01:54:25;;;;;;;17.55;14.93;;;;;;;15.80;65.90;99793.86;1779814;80;21014;-68
2021/11/05 01:56:51;;;;;;;18.05;16.23;;;;;;;15.79;65.93;99785.50;1768640;80;21074;-68
2021/11/05 01:59:31;;;;;;;18.20;16.30;;;;;;;15.79;66.08;99789.52;1755393;80;21146;-68
2021/11/05 02:01:59;;;;;;;17.40;15.60;;;;;;;15.80;66.08;99801.05;1752221;80;21623;-68
2021/11/05 02:04:26;;;;;;;17.40;15.65;;;;;;;15.79;66.10;99806.92;1768815;79;21070;-68
2021/11/05 02:06:54;;;;;;;17.98;16.17;;;;;;;15.79;66.20;99798.07;1768902;79;21094;-67
2021/11/05 02:09:23;;;;;;;16.80;15.08;;;;;;;15.79;66.17;99784.68;1778900;79;21021;-68
2021/11/05 02:11:51;;;;;;;17.87;16.07;;;;;;;15.77;66.24;99784.88;1791888;79;21116;-67
2021/11/05 02:14:21;;;;;;;19.35;17.30;;;;;;;15.79;66.31;99785.50;1782389;79;21101;-68
2021/11/05 02:16:50;;;;;;;16.52;14.85;;;;;;;15.78;66.38;99791.05;1768725;79;21089;-67
2021/11/05 02:19:20;;;;;;;17.50;15.45;;;;;;;15.80;66.44;99791.18;1767848;79;21042;-67
2021/11/05 02:21:48;;;;;;;18.57;16.12;;;;;;;15.91;66.17;99790.57;1768965;79;21094;-67
2021/11/05 02:24:15;;;;;;;19.20;16.20;;;;;;;15.94;66.03;99789.36;1796214;79;23272;-68
2021/11/05 02:26:42;;;;;;;17.20;15.13;;;;;;;15.94;66.13;99789.89;1774580;79;21035;-68
2021/11/05 02:29:09;;;;;;;17.52;15.72;;;;;;;15.92;66.19;99790.90;1770184;79;21054;-68
2021/11/05 02:31:36;;;;;;;20.25;17.02;;;;;;;15.93;66.21;99791.72;1764778;80;21022;-68
2021/11/05 02:34:02;;;;;;;18.52;16.57;;;;;;;15.92;66.28;99784.20;1764675;80;21022;-68
2021/11/05 02:36:29;;;;;;;19.02;17.15;;;;;;;15.92;66.35;99792.23;1764750;79;21892;-69
2021/11/05 02:38:56;;;;;;;18.92;16.82;;;;;;;15.92;66.36;99799.45;1786742;79;21090;-68
2021/11/05 02:41:22;;;;;;;20.62;17.37;;;;;;;15.92;66.43;99807.50;1764836;80;21015;-68
2021/11/05 02:43:49;;;;;;;19.48;17.48;;;;;;;15.93;66.42;99813.15;1765415;79;21049;-68
2021/11/05 02:46:15;;;;;;;20.88;17.80;;;;;;;15.91;66.40;99813.34;1764802;79;21042;-68
2021/11/05 02:48:43;;;;;;;17.20;15.48;;;;;;;15.92;66.52;99806.97;1764909;79;21162;-68
2021/11/05 02:51:10;;;;;;;18.20;16.30;;;;;;;15.92;66.60;99799.45;1764758;80;21046;-68
2021/11/05 02:53:38;;;;;;;17.32;15.63;;;;;;;15.92;66.62;99800.80;1764777;79;21074;-69
2021/11/05 02:56:05;;;;;;;17.77;15.75;;;;;;;15.91;66.64;99799.95;1772441;79;21025;-68
2021/11/05 02:58:32;;;;;;;19.67;17.55;;;;;;;15.91;66.72;99805.31;1778578;79;21055;-68
2021/11/05 03:00:59;;;;;;;19.20;17.12;;;;;;;15.91;66.79;99799.13;1795264;78;21242;-69
2021/11/05 03:03:26;;;;;;;19.92;17.92;;;;;;;15.91;66.83;99809.84;1806121;78;21019;-69
2021/11/05 03:05:53;;;;;;;19.90;17.80;;;;;;;15.92;66.93;99807.50;1789585;78;21047;-67
2021/11/05 03:08:20;;;;;;;17.23;14.78;;;;;;;15.91;67.00;99801.29;1756654;80;21030;-68
2021/11/05 03:10:46;;;;;;;17.67;15.88;;;;;;;15.99;66.88;99802.96;1783514;78;21057;-68
2021/11/05 03:13:14;;;;;;;17.05;15.35;;;;;;;16.07;66.60;99796.09;1789138;78;21208;-68
2021/11/05 03:15:41;;;;;;;18.10;16.20;;;;;;;16.06;66.69;99782.38;1784507;78;21049;-69
2021/11/05 03:18:07;;;;;;;17.82;15.98;;;;;;;16.05;66.75;99788.78;1793131;78;21510;-68
2021/11/05 03:20:34;;;;;;;17.48;15.72;;;;;;;16.05;66.81;99798.65;1810001;78;21061;-67
2021/11/05 03:23:00;;;;;;;18.45;16.52;;;;;;;16.05;66.88;99783.91;1792319;80;20990;-68
2021/11/05 03:25:26;;;;;;;17.45;15.75;;;;;;;16.04;66.92;99787.11;1755659;80;21056;-69
2021/11/05 03:27:53;;;;;;;17.95;16.12;;;;;;;16.04;67.05;99787.64;1792255;80;21080;-69
2021/11/05 03:30:19;;;;;;;18.80;16.93;;;;;;;16.04;67.08;99773.72;1792607;80;21033;-69
2021/11/05 03:32:46;;;;;;;18.92;16.87;;;;;;;16.04;67.21;99768.88;1791801;80;21080;-69
2021/11/05 03:35:14;;;;;;;20.25;16.40;;;;;;;16.02;67.19;99775.77;1762512;80;21020;-69
2021/11/05 03:37:41;;;;;;;20.27;18.05;;;;;;;16.03;67.28;99776.59;1792192;80;21570;-68
2021/11/05 03:40:10;;;;;;;18.10;16.17;;;;;;;16.02;67.47;99777.11;1756120;80;21002;-68
2021/11/05 03:42:37;;;;;;;17.65;15.93;;;;;;;16.02;67.50;99780.31;1772381;79;21049;-69
2021/11/05 03:45:05;;;;;;;19.75;16.95;;;;;;;16.01;67.58;99780.84;1739886;81;21069;-69
2021/11/05 03:47:31;;;;;;;19.40;17.50;;;;;;;16.01;67.67;99786.69;1770487;81;21052;-68
2021/11/05 03:49:58;;;;;;;18.02;16.12;;;;;;;16.01;67.71;99792.05;1753937;81;21143;-68
2021/11/05 03:52:24;;;;;;;17.85;15.60;;;;;;;16.07;67.61;99797.44;1758412;81;21099;-69
2021/11/05 03:54:51;;;;;;;18.15;15.95;;;;;;;16.16;67.30;99788.68;1770483;81;21283;-71
2021/11/05 03:57:17;;;;;;;19.10;16.35;;;;;;;16.16;67.35;99782.50;1770359;81;21544;-69
2021/11/05 03:59:45;;;;;;;21.55;16.93;;;;;;;16.15;67.42;99789.73;1759195;81;21041;-70
2021/11/05 04:02:11;;;;;;;18.80;16.80;;;;;;;16.13;67.43;99789.11;1760164;81;21161;-69
2021/11/05 04:04:38;;;;;;;19.35;16.93;;;;;;;16.11;67.40;99789.30;1770641;81;21020;-69
2021/11/05 04:07:04;;;;;;;18.87;16.73;;;;;;;16.13;67.46;99789.11;1752649;81;21579;-69
2021/11/05 04:09:31;;;;;;;20.50;17.17;;;;;;;16.11;67.53;99783.94;1765477;81;21003;-69
2021/11/05 04:11:57;;;;;;;19.85;17.35;;;;;;;16.12;67.59;99787.44;1770326;81;21047;-68
2021/11/05 04:14:24;;;;;;;19.32;17.15;;;;;;;16.11;67.63;99784.47;1752119;81;21162;-68
2021/11/05 04:16:50;;;;;;;18.62;16.73;;;;;;;16.11;67.68;99789.30;1767164;81;21009;-69
2021/11/05 04:19:16;;;;;;;18.85;16.82;;;;;;;16.10;67.77;99792.17;1770442;81;21001;-68
2021/11/05 04:21:43;;;;;;;18.73;16.82;;;;;;;16.10;67.74;99796.20;1765490;79;21042;-68
2021/11/05 04:24:10;;;;;;;20.23;17.57;;;;;;;16.09;67.84;99789.20;1764670;79;21070;-68
2021/11/05 04:26:37;;;;;;;20.62;16.67;;;;;;;16.11;67.96;99791.16;1772609;79;21061;-68
2021/11/05 04:29:04;;;;;;;18.37;16.42;;;;;;;16.10;67.96;99781.46;1764623;80;21049;-68
2021/11/05 04:31:31;;;;;;;20.15;17.75;;;;;;;16.16;67.89;99777.96;1783596;79;21033;-68
2021/11/05 04:35:46;;;;;;;19.10;17.15;;;;;;;16.31;67.55;99783.14;1854534;76;25573;-70
2021/11/05 04:38:13;;;;;;;21.10;18.25;;;;;;;16.24;67.62;99790.34;1826340;77;20954;-69
2021/11/05 04:40:39;;;;;;;22.22;18.65;;;;;;;16.22;67.66;99785.18;1831240;77;21476;-69
2021/11/05 04:43:06;;;;;;;20.85;18.65;;;;;;;16.24;67.72;99790.34;1853945;77;21545;-70
2021/11/05 04:45:34;;;;;;;21.30;17.92;;;;;;;16.23;67.73;99780.67;1855639;77;21002;-68
2021/11/05 04:48:00;;;;;;;21.07;18.98;;;;;;;16.22;67.77;99774.98;1840846;77;21466;-69
2021/11/05 04:50:27;;;;;;;21.65;18.70;;;;;;;16.21;67.81;99778.19;1860141;77;21564;-69
2021/11/05 04:52:53;;;;;;;24.30;20.92;;;;;;;16.21;67.87;99778.70;1848747;77;21131;-69
2021/11/05 04:55:21;;;;;;;22.27;20.02;;;;;;;16.21;67.99;99777.37;1847970;77;20862;-69
2021/11/05 04:57:49;;;;;;;24.55;20.65;;;;;;;16.20;68.01;99774.36;1827708;77;21008;-69
2021/11/05 05:00:16;;;;;;;24.77;22.25;;;;;;;16.12;68.03;99764.14;1823604;77;21052;-68
2021/11/05 05:02:43;;;;;;;23.55;21.07;;;;;;;16.19;68.11;99785.61;1854714;77;20994;-69
2021/11/05 05:05:10;;;;;;;24.50;21.73;;;;;;;16.19;68.11;99793.65;1843492;77;21101;-69
2021/11/05 05:07:38;;;;;;;23.40;20.20;;;;;;;16.20;68.15;99786.42;1850107;77;21012;-69
2021/11/05 05:10:05;;;;;;;23.77;19.77;;;;;;;16.25;68.05;99784.78;1851295;77;21006;-68
2021/11/05 05:12:32;;;;;;;21.62;18.92;;;;;;;16.36;67.75;99787.39;1842293;77;21025;-69
2021/11/05 05:14:58;;;;;;;23.47;20.57;;;;;;;16.35;67.76;99780.36;1842921;77;21513;-68
2021/11/05 05:17:24;;;;;;;25.12;21.55;;;;;;;16.34;67.89;99785.92;1834488;77;21030;-68
2021/11/05 05:19:51;;;;;;;27.55;23.38;;;;;;;16.33;67.90;99790.47;1823154;77;21077;-69
2021/11/05 05:22:17;;;;;;;25.65;23.07;;;;;;;16.32;67.89;99798.19;1837894;77;21064;-69
2021/11/05 05:24:44;;;;;;;27.00;23.60;;;;;;;16.33;68.00;99790.98;1860069;77;21071;-69
2021/11/05 05:27:10;;;;;;;29.12;23.27;;;;;;;16.31;68.20;99781.28;1836246;77;21040;-69
2021/11/05 05:29:37;;;;;;;28.38;25.20;;;;;;;16.31;68.25;99793.34;1860379;77;21139;-69
2021/11/05 05:32:04;;;;;;;28.10;25.08;;;;;;;16.31;68.29;99785.30;1836276;77;22040;-69
2021/11/05 05:34:30;;;;;;;29.80;25.65;;;;;;;16.30;68.32;99782.33;1841389;77;21072;-68
2021/11/05 05:36:57;;;;;;;29.63;25.45;;;;;;;16.31;68.33;99791.19;1821714;77;21001;-68
2021/11/05 05:39:23;;;;;;;29.00;24.87;;;;;;;16.31;68.37;99792.53;1826101;77;21005;-69
2021/11/05 05:41:50;;;;;;;26.02;23.27;;;;;;;16.30;68.41;99788.18;1833176;77;21167;-68
2021/11/05 05:44:16;;;;;;;27.17;22.77;;;;;;;16.29;68.49;99795.41;1828587;77;21486;-71
2021/11/05 05:46:42;;;;;;;26.02;23.22;;;;;;;16.38;68.32;99801.91;1826768;77;21505;-68
2021/11/05 05:49:09;;;;;;;25.52;22.58;;;;;;;16.46;67.99;99806.57;1776566;79;21031;-69
2021/11/05 05:51:35;;;;;;;29.25;24.27;;;;;;;16.45;68.01;99814.81;1758029;79;21108;-69
2021/11/05 05:54:02;;;;;;;28.85;23.05;;;;;;;16.44;68.09;99814.00;1765619;79;21143;-70
2021/11/05 05:56:29;;;;;;;28.15;23.32;;;;;;;16.45;68.22;99814.81;1759138;80;21041;-70
2021/11/05 05:58:56;;;;;;;25.17;22.27;;;;;;;16.44;68.39;99811.31;1761399;80;21045;-70
2021/11/05 06:01:22;;;;;;;27.15;22.82;;;;;;;16.44;68.47;99814.52;1822073;77;21041;-69
2021/11/05 06:03:49;;;;;;;26.95;22.37;;;;;;;16.44;68.43;99817.20;1814381;77;21071;-69
2021/11/05 06:06:15;;;;;;;25.02;22.20;;;;;;;16.44;68.44;99821.22;1830557;77;21897;-68
2021/11/05 06:08:41;;;;;;;24.75;22.10;;;;;;;16.43;68.43;99828.42;1818291;77;21061;-70
2021/11/05 06:11:09;;;;;;;24.55;21.97;;;;;;;16.44;68.55;99827.92;1819426;77;21032;-69
2021/11/05 06:13:35;;;;;;;25.00;22.25;;;;;;;16.43;68.59;99828.94;1842616;77;20994;-69
2021/11/05 06:16:02;;;;;;;26.00;22.98;;;;;;;16.43;68.64;99832.96;1841980;77;21034;-69
2021/11/05 06:18:28;;;;;;;24.75;20.65;;;;;;;16.43;68.76;99839.14;1832382;77;21047;-70
2021/11/05 06:20:55;;;;;;;26.05;21.57;;;;;;;16.49;68.74;99842.34;1830189;77;21232;-69
2021/11/05 06:23:21;;;;;;;26.57;21.48;;;;;;;16.60;68.42;99845.47;1835466;77;21065;-69
2021/11/05 06:25:49;;;;;;;28.07;22.45;;;;;;;16.59;68.65;99833.92;1826920;77;21029;-70
2021/11/05 06:28:15;;;;;;;28.62;22.90;;;;;;;16.59;68.86;99835.76;1824350;77;21589;-68
2021/11/05 06:30:42;;;;;;;27.58;21.85;;;;;;;16.58;69.22;99811.33;1814486;78;21130;-69
2021/11/05 06:33:08;;;;;;;28.40;22.77;;;;;;;16.58;69.39;99812.67;1814243;78;21049;-69
2021/11/05 06:35:35;;;;;;;27.58;22.32;;;;;;;16.58;69.46;99793.38;1837773;77;20987;-70
2021/11/05 06:38:01;;;;;;;24.50;21.15;;;;;;;16.58;69.52;99809.98;1831549;77;21010;-70
2021/11/05 06:40:27;;;;;;;26.57;21.93;;;;;;;16.58;69.56;99809.46;1843826;77;21013;-69
2021/11/05 06:42:54;;;;;;;26.12;20.65;;;;;;;16.58;69.59;99817.51;1813651;77;21931;-70
2021/11/05 06:45:20;;;;;;;23.22;20.40;;;;;;;16.59;69.72;99820.52;1814351;77;21084;-69
2021/11/05 06:47:47;;;;;;;27.15;21.23;;;;;;;16.66;69.57;99829.89;1822881;77;21658;-69
2021/11/05 06:50:13;;;;;;;27.25;21.33;;;;;;;16.76;69.38;99824.93;1820677;77;21497;-69
2021/11/05 06:52:40;;;;;;;29.63;22.27;;;;;;;16.77;69.36;99823.09;1831217;77;20974;-69
2021/11/05 06:55:08;;;;;;;27.27;22.42;;;;;;;16.76;69.53;99826.80;1847592;77;21052;-68
2021/11/05 06:57:35;;;;;;;26.62;21.50;;;;;;;16.76;69.44;99812.86;1842025;77;21030;-69
2021/11/05 07:00:04;;;;;;;30.37;22.70;;;;;;;16.77;69.51;99831.14;1829695;77;21025;-70
2021/11/05 07:02:32;;;;;;;29.37;21.60;;;;;;;16.76;69.59;99834.31;1834739;77;21569;-69
2021/11/05 07:04:59;;;;;;;31.68;23.65;;;;;;;16.78;69.49;99822.05;1814783;77;21521;-69
2021/11/05 07:07:25;;;;;;;28.55;22.77;;;;;;;16.77;69.58;99826.59;1814936;77;21144;-69
2021/11/05 07:09:52;;;;;;;30.23;23.22;;;;;;;16.78;69.57;99819.37;1834588;77;21081;-69
2021/11/05 07:12:18;;;;;;;25.02;20.37;;;;;;;16.79;69.68;99822.38;1833510;77;20995;-70
2021/11/05 07:14:44;;;;;;;28.23;21.52;;;;;;;16.85;69.59;99829.62;1814353;77;21540;-70
2021/11/05 07:17:11;;;;;;;32.33;24.20;;;;;;;16.95;69.20;99835.38;1826522;77;21030;-70
2021/11/05 07:19:38;;;;;;;28.25;22.30;;;;;;;16.95;69.18;99852.83;1826277;77;21104;-69
2021/11/05 07:22:04;;;;;;;28.70;21.62;;;;;;;16.92;69.30;99855.95;1814251;77;21000;-69
2021/11/05 07:24:32;;;;;;;29.25;21.95;;;;;;;16.92;69.22;99844.36;1832948;77;20975;-69
2021/11/05 07:26:59;;;;;;;26.97;22.42;;;;;;;16.92;69.18;99851.07;1824097;77;20998;-68
2021/11/05 07:29:27;;;;;;;29.70;22.35;;;;;;;16.91;69.25;99858.30;1831847;77;21088;-69
2021/11/05 07:31:55;;;;;;;26.73;20.65;;;;;;;16.92;69.27;99855.95;1839506;77;21196;-69
2021/11/05 07:34:21;;;;;;;29.77;22.52;;;;;;;16.92;69.33;99857.28;1829999;77;21621;-69
2021/11/05 07:36:48;;;;;;;33.50;23.60;;;;;;;16.91;69.37;99838.17;1815335;77;21593;-70
2021/11/05 07:39:14;;;;;;;30.35;22.95;;;;;;;16.90;69.43;99841.87;1837816;77;21587;-70
2021/11/05 07:41:41;;;;;;;26.25;21.70;;;;;;;16.90;69.37;99831.14;1836093;77;21011;-70
2021/11/05 07:44:07;;;;;;;30.15;23.80;;;;;;;16.96;69.10;99833.52;1845834;77;21092;-68
2021/11/05 07:46:34;;;;;;;26.00;20.12;;;;;;;17.07;68.65;99850.34;1825266;77;21047;-69
2021/11/05 07:49:00;;;;;;;27.93;21.90;;;;;;;17.05;68.62;99860.45;1834649;77;21215;-69
2021/11/05 07:51:28;;;;;;;28.77;22.95;;;;;;;17.05;68.55;99852.41;1846980;77;21022;-70
2021/11/05 07:53:55;;;;;;;29.52;21.87;;;;;;;17.04;68.81;99842.20;1824978;77;21601;-70
2021/11/05 07:56:21;;;;;;;30.48;22.95;;;;;;;17.06;68.67;99839.31;1839756;77;21071;-69
2021/11/05 07:58:47;;;;;;;32.17;23.18;;;;;;;17.06;68.62;99862.13;1848160;77;21053;-70
2021/11/05 08:01:13;;;;;;;28.77;23.55;;;;;;;17.05;68.77;99865.83;1773632;79;21380;-70
2021/11/05 08:03:41;;;;;;;34.73;23.67;;;;;;;17.05;68.63;99874.70;1772477;81;21067;-70
2021/11/05 08:06:08;;;;;;;27.98;22.93;;;;;;;17.05;68.42;99870.67;1773642;79;21047;-69
2021/11/05 08:08:34;;;;;;;29.27;23.73;;;;;;;17.05;68.45;99858.59;1833391;77;21057;-69
2021/11/05 08:11:03;;;;;;;28.80;23.50;;;;;;;17.05;68.45;99862.62;1837206;77;21068;-70
2021/11/05 08:13:30;;;;;;;31.65;22.98;;;;;;;17.06;68.63;99875.02;1818577;77;21010;-70
2021/11/05 08:15:56;;;;;;;30.43;22.35;;;;;;;17.05;68.75;99878.72;1834980;77;21072;-70
2021/11/05 08:18:22;;;;;;;30.35;23.55;;;;;;;17.11;68.51;99894.52;1824792;77;21038;-70
2021/11/05 08:20:49;;;;;;;33.95;22.70;;;;;;;17.21;68.18;99907.02;1773894;79;22040;-69
2021/11/05 08:23:15;;;;;;;30.95;23.77;;;;;;;17.20;68.33;99904.02;1771616;81;21038;-70
2021/11/05 08:25:44;;;;;;;28.85;22.17;;;;;;;17.19;68.41;99908.25;1772408;80;21086;-63
2021/11/05 08:28:10;;;;;;;29.27;23.90;;;;;;;17.18;68.28;99900.72;1773945;80;20981;-63
2021/11/05 08:30:38;;;;;;;32.60;24.37;;;;;;;17.19;68.35;99889.45;1742221;80;21618;-62
2021/11/05 08:33:04;;;;;;;28.62;22.82;;;;;;;17.19;68.37;99888.11;1814864;77;21909;-63
2021/11/05 08:35:31;;;;;;;34.80;25.20;;;;;;;17.19;68.13;99890.80;1815743;77;21104;-62
2021/11/05 08:37:58;;;;;;;30.23;25.75;;;;;;;17.20;68.12;99887.91;1798830;78;21040;-62
2021/11/05 08:40:25;;;;;;;35.33;25.68;;;;;;;17.20;68.23;99885.75;1776755;77;21010;-62
2021/11/05 08:42:52;;;;;;;32.13;25.37;;;;;;;17.20;68.08;99887.09;1815867;78;21073;-62
2021/11/05 08:45:18;;;;;;;35.45;26.35;;;;;;;17.21;68.13;99861.88;1812833;77;21503;-63
2021/11/05 08:47:44;;;;;;;31.27;27.48;;;;;;;17.21;68.08;99860.05;1790511;77;21119;-63
2021/11/05 08:50:18;;;;;;;31.80;25.75;;;;;;;17.21;68.13;99851.14;1799894;78;21075;-63
2021/11/05 08:52:44;;;;;;;31.93;24.65;;;;;;;17.22;68.21;99850.13;1787717;77;21043;-62
2021/11/05 08:55:10;;;;;;;31.65;24.32;;;;;;;17.28;67.89;99851.97;1814917;77;21012;-63
2021/11/05 08:57:37;;;;;;;35.40;25.50;;;;;;;17.37;67.66;99842.66;1814732;77;21908;-62
2021/11/05 09:00:14;;;;;;;31.40;24.98;;;;;;;17.36;67.59;99849.05;1815311;77;21541;-62
2021/11/05 09:02:42;;;;;;;32.03;24.92;;;;;;;17.37;67.59;99855.27;1813349;77;21090;-63
2021/11/05 09:05:08;;;;;;;31.23;25.27;;;;;;;17.37;67.72;99866.02;1800884;77;21082;-62
2021/11/05 09:07:35;;;;;;;31.42;25.00;;;;;;;17.37;67.83;99864.67;1818667;77;21084;-62
2021/11/05 09:10:04;;;;;;;32.95;26.23;;;;;;;17.39;67.78;99858.56;1809633;77;21145;-62
2021/11/05 09:12:32;;;;;;;28.83;23.47;;;;;;;17.40;67.53;99869.11;1788085;78;21020;-63
2021/11/05 09:14:58;;;;;;;30.27;25.40;;;;;;;17.43;67.23;99866.52;1791029;78;21478;-62
2021/11/05 09:17:27;;;;;;;30.27;25.68;;;;;;;17.44;67.42;99867.65;1787804;78;21493;-63
2021/11/05 09:19:53;;;;;;;33.00;26.55;;;;;;;17.46;67.30;99869.61;1781144;77;21601;-63
2021/11/05 09:22:19;;;;;;;30.90;24.90;;;;;;;17.49;67.19;99859.77;1811535;77;21210;-64
2021/11/05 09:24:46;;;;;;;33.98;26.40;;;;;;;17.52;67.15;99872.47;1815225;77;20979;-62
2021/11/05 09:27:13;;;;;;;28.40;24.10;;;;;;;17.54;67.06;99875.27;1815179;77;21027;-62
2021/11/05 09:29:39;;;;;;;30.32;24.80;;;;;;;17.58;67.00;99874.34;1815101;77;21530;-62
2021/11/05 09:32:06;;;;;;;31.85;25.35;;;;;;;17.60;67.03;99860.17;1815540;77;20995;-62
2021/11/05 09:34:33;;;;;;;28.55;24.05;;;;;;;17.62;66.92;99866.97;1815265;77;21894;-62
2021/11/05 09:37:01;;;;;;;33.20;26.60;;;;;;;17.63;66.86;99859.73;1847584;77;20993;-62
2021/11/05 09:39:30;;;;;;;29.82;24.20;;;;;;;17.65;66.85;99847.76;1837050;77;21020;-69
2021/11/05 09:41:59;;;;;;;28.40;24.37;;;;;;;17.73;66.85;99848.05;1845093;77;20971;-69
2021/11/05 09:44:25;;;;;;;29.05;25.52;;;;;;;17.86;66.34;99848.52;1845078;77;21011;-69
2021/11/05 09:46:53;;;;;;;29.10;23.67;;;;;;;17.86;66.23;99839.94;1845236;77;21118;-70
2021/11/05 09:49:19;;;;;;;29.87;25.37;;;;;;;17.87;66.10;99844.28;1842348;77;21006;-74
2021/11/05 09:51:46;;;;;;;28.70;22.58;;;;;;;17.89;65.93;99848.11;1849707;77;21503;-74
2021/11/05 09:54:13;;;;;;;29.82;24.32;;;;;;;17.91;65.73;99841.19;1844906;77;20965;-69
2021/11/05 09:56:39;;;;;;;29.35;23.77;;;;;;;17.92;66.04;99838.26;1807971;78;21087;-69
2021/11/05 09:59:07;;;;;;;28.62;24.35;;;;;;;17.93;66.13;99832.39;1846759;77;21200;-69
2021/11/05 10:01:33;;;;;;;25.88;22.90;;;;;;;17.94;65.83;99814.67;1823432;77;21065;-69
2021/11/05 10:04:00;;;;;;;27.07;23.15;;;;;;;17.95;65.68;99821.72;1846923;77;21024;-69
2021/11/05 10:06:27;;;;;;;27.17;23.98;;;;;;;17.96;65.61;99807.75;1831237;77;21030;-69
2021/11/05 10:08:54;;;;;;;27.35;23.92;;;;;;;17.97;65.42;99818.82;1844005;77;21080;-68
2021/11/05 10:11:30;;;;;;;27.05;23.30;;;;;;;17.98;65.56;99839.27;1850159;77;21060;-69
2021/11/05 10:13:59;;;;;;;26.15;23.32;;;;;;;18.00;65.58;99834.50;1843068;77;20981;-69
2021/11/05 10:16:27;;;;;;;28.50;23.10;;;;;;;18.00;65.25;99827.28;1847977;77;21021;-68
2021/11/05 10:19:01;;;;;;;26.57;22.05;;;;;;;18.02;65.09;99833.77;1845040;77;21497;-69
2021/11/05 10:21:29;;;;;;;;;;;;;;;18.02;65.06;99845.86;1826254;77;21014;-69
2021/11/05 10:24:01;;;;;;;24.85;21.60;;;;;;;18.02;65.15;99849.89;1846490;77;21198;-69
2021/11/05 10:26:28;;;;;;;27.30;24.23;;;;;;;17.98;64.97;99862.96;1853252;77;21037;-70
2021/11/05 10:28:55;;;;;;;26.37;23.47;;;;;;;18.01;65.09;99850.95;1833024;77;21496;-70
2021/11/05 10:31:25;;;;;;;27.55;23.32;;;;;;;17.99;65.13;99849.81;1837217;77;21046;-68
2021/11/05 10:33:51;;;;;;;26.23;23.02;;;;;;;17.99;64.98;99841.75;1853021;77;21075;-69
2021/11/05 10:36:22;;;;;;;27.15;23.15;;;;;;;17.98;64.69;99830.70;1852498;77;21096;-71
2021/11/05 10:38:52;;;;;;;29.02;23.27;;;;;;;18.00;64.57;99821.91;1842886;77;21125;-69
2021/11/05 10:41:21;;;;;;;25.70;22.82;;;;;;;18.00;64.67;99833.16;1812597;77;21052;-69
2021/11/05 10:43:56;;;;;;;26.90;24.02;;;;;;;18.00;64.45;99826.44;1837672;77;21045;-69
2021/11/05 10:46:39;;;;;;;24.25;20.55;;;;;;;18.00;64.31;99827.78;1829538;77;21034;-69
2021/11/05 10:49:27;;;;;;;28.12;23.92;;;;;;;18.00;64.32;99803.59;1842018;77;21129;-70
2021/11/05 10:52:18;;;;;;;26.68;22.60;;;;;;;17.99;64.36;99824.28;1814245;77;21053;-68
2021/11/05 10:54:58;;;;;;;29.27;22.05;;;;;;;17.99;64.42;99832.87;1822311;77;21116;-68
2021/11/05 10:57:42;;;;;;;30.32;23.73;;;;;;;17.96;64.17;99784.38;1818069;77;21069;-70
2021/11/05 11:00:27;;;;;;;27.27;22.25;;;;;;;17.96;64.18;99799.69;1830677;77;21625;-68
2021/11/05 11:02:53;;;;;;;25.23;22.52;;;;;;;17.96;64.08;99820.66;1836849;77;21152;-69
2021/11/05 11:05:33;;;;;;;27.17;23.42;;;;;;;17.96;64.19;99832.75;1832777;77;21072;-71
2021/11/05 11:08:01;;;;;;;27.17;23.22;;;;;;;17.97;64.18;99833.60;1824143;77;21084;-69
2021/11/05 11:10:34;;;;;;;24.10;21.48;;;;;;;17.97;64.26;99834.95;1813289;78;21081;-69
2021/11/05 11:13:01;;;;;;;25.45;22.55;;;;;;;17.97;64.34;99825.02;1821415;77;21012;-69
2021/11/05 11:15:33;;;;;;;26.25;22.15;;;;;;;17.98;64.57;99832.55;1820897;77;21357;-69
2021/11/05 11:18:00;;;;;;;27.80;22.05;;;;;;;18.00;64.69;99835.84;1825004;77;21041;-69
2021/11/05 11:20:31;;;;;;;24.90;20.57;;;;;;;18.00;64.37;99835.84;1837929;77;21562;-69